sensor_id;sensor_type;location;lat;lon;timestamp;temperature;humidity
10089;DHT22;51898;49.864;8.550;2022-09-03T00:02:15;17.60;97.50
10089;DHT22;51898;49.864;8.550;2022-09-03T00:05:28;17.60;97.80
10089;DHT22;51898;49.864;8.550;2022-09-03T00:09:05;17.20;99.90
10089;DHT22;51898;49.864;8.550;2022-09-03T00:12:22;16.70;99.90
10089;DHT22;51898;49.864;8.550;2022-09-03T00:15:26;16.40;99.90
10089;DHT22;51898;49.864;8.550;2022-09-03T00:18:31;16.30;99.90
10089;DHT22;51898;49.864;8.550;2022-09-03T00:21:42;16.40;99.90
10089;DHT22;51898;49.864;8.550;2022-09-03T00:24:46;16.40;99.90
10089;DHT22;51898;49.864;8.550;2022-09-03T00:27:53;16.40;99.90
10089;DHT22;51898;49.864;8.550;2022-09-03T00:31:17;16.40;99.90
10089;DHT22;51898;49.864;8.550;2022-09-03T00:34:33;16.40;99.90
10089;DHT22;51898;49.864;8.550;2022-09-03T00:37:36;16.40;99.90
10089;DHT22;51898;49.864;8.550;2022-09-03T00:44:05;16.40;99.90
10089;DHT22;51898;49.864;8.550;2022-09-03T00:47:22;16.50;99.90
10089;DHT22;51898;49.864;8.550;2022-09-03T00:55:00;16.60;99.90
10089;DHT22;51898;49.864;8.550;2022-09-03T00:57:38;16.60;99.90
10089;DHT22;51898;49.864;8.550;2022-09-03T01:00:49;16.60;99.90
10089;DHT22;51898;49.864;8.550;2022-09-03T01:10:40;16.70;99.90
10089;DHT22;51898;49.864;8.550;2022-09-03T01:20:52;16.90;99.90
10089;DHT22;51898;49.864;8.550;2022-09-03T01:24:20;17.00;99.90
10089;DHT22;51898;49.864;8.550;2022-09-03T01:27:40;17.10;99.90
10089;DHT22;51898;49.864;8.550;2022-09-03T01:30:55;17.10;99.90
10089;DHT22;51898;49.864;8.550;2022-09-03T01:34:22;17.10;99.90
10089;DHT22;51898;49.864;8.550;2022-09-03T01:37:40;17.10;99.90
10089;DHT22;51898;49.864;8.550;2022-09-03T01:44:31;17.20;99.90
10089;DHT22;51898;49.864;8.550;2022-09-03T01:57:51;17.30;99.90
10089;DHT22;51898;49.864;8.550;2022-09-03T02:01:01;17.30;99.90
10089;DHT22;51898;49.864;8.550;2022-09-03T02:04:14;17.40;99.90
10089;DHT22;51898;49.864;8.550;2022-09-03T02:07:17;17.40;99.90
10089;DHT22;51898;49.864;8.550;2022-09-03T02:10:22;17.40;99.90
10089;DHT22;51898;49.864;8.550;2022-09-03T02:13:31;17.50;99.90
10089;DHT22;51898;49.864;8.550;2022-09-03T02:16:35;17.50;99.90
10089;DHT22;51898;49.864;8.550;2022-09-03T02:19:37;17.50;99.90
10089;DHT22;51898;49.864;8.550;2022-09-03T02:22:40;17.50;99.90
10089;DHT22;51898;49.864;8.550;2022-09-03T02:25:47;17.50;99.90
10089;DHT22;51898;49.864;8.550;2022-09-03T02:28:50;17.60;99.90
10089;DHT22;51898;49.864;8.550;2022-09-03T02:31:52;17.60;99.90
10089;DHT22;51898;49.864;8.550;2022-09-03T02:34:53;17.60;99.90
10089;DHT22;51898;49.864;8.550;2022-09-03T02:37:55;17.60;99.90
10089;DHT22;51898;49.864;8.550;2022-09-03T02:40:56;17.70;99.90
10089;DHT22;51898;49.864;8.550;2022-09-03T02:47:12;17.70;99.90
10089;DHT22;51898;49.864;8.550;2022-09-03T02:50:15;17.70;99.90
10089;DHT22;51898;49.864;8.550;2022-09-03T02:53:17;17.70;99.90
10089;DHT22;51898;49.864;8.550;2022-09-03T02:56:18;17.80;99.90
10089;DHT22;51898;49.864;8.550;2022-09-03T02:59:20;17.80;99.90
10089;DHT22;51898;49.864;8.550;2022-09-03T03:02:23;17.80;99.90
10089;DHT22;51898;49.864;8.550;2022-09-03T03:05:30;17.80;99.90
10089;DHT22;51898;49.864;8.550;2022-09-03T03:08:36;17.90;99.90
10089;DHT22;51898;49.864;8.550;2022-09-03T03:11:38;17.90;99.90
10089;DHT22;51898;49.864;8.550;2022-09-03T03:14:40;17.90;99.90
10089;DHT22;51898;49.864;8.550;2022-09-03T03:17:43;17.90;99.90
10089;DHT22;51898;49.864;8.550;2022-09-03T03:20:46;17.90;99.90
10089;DHT22;51898;49.864;8.550;2022-09-03T03:23:48;17.90;99.90
10089;DHT22;51898;49.864;8.550;2022-09-03T03:26:50;17.90;99.90
10089;DHT22;51898;49.864;8.550;2022-09-03T03:29:52;17.90;99.90
10089;DHT22;51898;49.864;8.550;2022-09-03T03:32:55;17.90;99.90
10089;DHT22;51898;49.864;8.550;2022-09-03T03:35:58;17.90;99.90
10089;DHT22;51898;49.864;8.550;2022-09-03T03:39:00;17.80;99.90
10089;DHT22;51898;49.864;8.550;2022-09-03T03:42:02;17.90;99.90
10089;DHT22;51898;49.864;8.550;2022-09-03T03:45:05;17.90;99.90
10089;DHT22;51898;49.864;8.550;2022-09-03T03:48:06;17.80;99.90
10089;DHT22;51898;49.864;8.550;2022-09-03T03:51:09;17.80;99.90
10089;DHT22;51898;49.864;8.550;2022-09-03T03:54:11;17.80;99.90
10089;DHT22;51898;49.864;8.550;2022-09-03T03:57:18;17.80;99.90
10089;DHT22;51898;49.864;8.550;2022-09-03T04:00:20;17.80;99.90
10089;DHT22;51898;49.864;8.550;2022-09-03T04:03:25;17.80;99.90
10089;DHT22;51898;49.864;8.550;2022-09-03T04:06:27;17.80;99.90
10089;DHT22;51898;49.864;8.550;2022-09-03T04:09:29;17.70;99.90
10089;DHT22;51898;49.864;8.550;2022-09-03T04:12:30;17.80;99.90
10089;DHT22;51898;49.864;8.550;2022-09-03T04:15:33;17.70;99.90
10089;DHT22;51898;49.864;8.550;2022-09-03T04:18:36;17.70;99.90
10089;DHT22;51898;49.864;8.550;2022-09-03T04:21:38;17.80;99.90
10089;DHT22;51898;49.864;8.550;2022-09-03T04:24:40;17.80;99.90
10089;DHT22;51898;49.864;8.550;2022-09-03T04:27:41;17.80;99.90
10089;DHT22;51898;49.864;8.550;2022-09-03T04:30:44;17.80;99.90
10089;DHT22;51898;49.864;8.550;2022-09-03T04:33:49;17.80;99.90
10089;DHT22;51898;49.864;8.550;2022-09-03T04:36:51;17.80;99.90
10089;DHT22;51898;49.864;8.550;2022-09-03T04:39:53;17.80;99.90
10089;DHT22;51898;49.864;8.550;2022-09-03T04:42:56;17.70;99.90
10089;DHT22;51898;49.864;8.550;2022-09-03T04:46:01;17.70;99.90
10089;DHT22;51898;49.864;8.550;2022-09-03T04:49:03;17.70;99.90
10089;DHT22;51898;49.864;8.550;2022-09-03T04:52:05;17.80;99.90
10089;DHT22;51898;49.864;8.550;2022-09-03T04:55:07;17.80;99.90
10089;DHT22;51898;49.864;8.550;2022-09-03T04:58:09;17.80;99.90
10089;DHT22;51898;49.864;8.550;2022-09-03T05:01:15;17.80;99.90
10089;DHT22;51898;49.864;8.550;2022-09-03T05:04:17;17.80;99.90
10089;DHT22;51898;49.864;8.550;2022-09-03T05:07:20;17.80;99.90
10089;DHT22;51898;49.864;8.550;2022-09-03T05:10:22;17.90;99.90
10089;DHT22;51898;49.864;8.550;2022-09-03T05:13:24;17.90;99.90
10089;DHT22;51898;49.864;8.550;2022-09-03T05:16:27;17.90;99.90
10089;DHT22;51898;49.864;8.550;2022-09-03T05:19:30;17.90;99.90
10089;DHT22;51898;49.864;8.550;2022-09-03T05:22:33;17.90;99.90
10089;DHT22;51898;49.864;8.550;2022-09-03T05:25:35;17.90;99.90
10089;DHT22;51898;49.864;8.550;2022-09-03T05:28:40;17.90;99.90
10089;DHT22;51898;49.864;8.550;2022-09-03T05:31:41;18.00;99.90
10089;DHT22;51898;49.864;8.550;2022-09-03T05:34:43;17.90;99.90
10089;DHT22;51898;49.864;8.550;2022-09-03T05:37:45;17.90;99.90
10089;DHT22;51898;49.864;8.550;2022-09-03T05:40:46;17.90;99.90
10089;DHT22;51898;49.864;8.550;2022-09-03T05:43:49;17.90;99.90
10089;DHT22;51898;49.864;8.550;2022-09-03T05:47:00;18.00;99.90
10089;DHT22;51898;49.864;8.550;2022-09-03T05:50:01;18.00;99.90
10089;DHT22;51898;49.864;8.550;2022-09-03T05:53:03;18.00;99.90
10089;DHT22;51898;49.864;8.550;2022-09-03T05:56:07;18.00;99.90
10089;DHT22;51898;49.864;8.550;2022-09-03T05:59:13;18.00;99.90
10089;DHT22;51898;49.864;8.550;2022-09-03T06:02:14;18.10;99.90
10089;DHT22;51898;49.864;8.550;2022-09-03T06:05:20;18.00;99.90
10089;DHT22;51898;49.864;8.550;2022-09-03T06:08:22;18.10;99.90
10089;DHT22;51898;49.864;8.550;2022-09-03T06:11:24;18.20;99.90
10089;DHT22;51898;49.864;8.550;2022-09-03T06:14:28;18.10;99.90
10089;DHT22;51898;49.864;8.550;2022-09-03T06:17:30;18.00;99.90
10089;DHT22;51898;49.864;8.550;2022-09-03T06:20:32;18.00;99.90
10089;DHT22;51898;49.864;8.550;2022-09-03T06:23:37;17.90;99.90
10089;DHT22;51898;49.864;8.550;2022-09-03T06:26:41;17.80;99.90
10089;DHT22;51898;49.864;8.550;2022-09-03T06:29:44;17.70;99.90
10089;DHT22;51898;49.864;8.550;2022-09-03T06:32:49;17.60;99.90
10089;DHT22;51898;49.864;8.550;2022-09-03T06:35:54;17.60;99.90
10089;DHT22;51898;49.864;8.550;2022-09-03T06:38:59;17.50;99.90
10089;DHT22;51898;49.864;8.550;2022-09-03T06:42:01;17.60;99.90
10089;DHT22;51898;49.864;8.550;2022-09-03T06:45:04;17.60;99.90
10089;DHT22;51898;49.864;8.550;2022-09-03T06:48:12;17.80;99.90
10089;DHT22;51898;49.864;8.550;2022-09-03T06:51:19;17.90;99.90
10089;DHT22;51898;49.864;8.550;2022-09-03T06:54:21;18.10;99.90
10089;DHT22;51898;49.864;8.550;2022-09-03T06:57:23;18.30;99.90
10089;DHT22;51898;49.864;8.550;2022-09-03T07:00:25;18.50;99.90
10089;DHT22;51898;49.864;8.550;2022-09-03T07:03:26;18.60;99.90
10089;DHT22;51898;49.864;8.550;2022-09-03T07:06:39;18.60;99.90
10089;DHT22;51898;49.864;8.550;2022-09-03T07:09:42;18.70;99.90
10089;DHT22;51898;49.864;8.550;2022-09-03T07:12:48;18.60;99.90
10089;DHT22;51898;49.864;8.550;2022-09-03T07:16:04;18.60;99.90
10089;DHT22;51898;49.864;8.550;2022-09-03T07:19:06;18.40;99.90
10089;DHT22;51898;49.864;8.550;2022-09-03T07:22:09;18.20;99.90
10089;DHT22;51898;49.864;8.550;2022-09-03T07:25:12;18.10;99.90
10089;DHT22;51898;49.864;8.550;2022-09-03T07:28:13;18.20;99.90
10089;DHT22;51898;49.864;8.550;2022-09-03T07:31:17;18.00;99.90
10089;DHT22;51898;49.864;8.550;2022-09-03T07:34:27;17.90;99.90
10089;DHT22;51898;49.864;8.550;2022-09-03T07:37:29;17.70;99.90
10089;DHT22;51898;49.864;8.550;2022-09-03T07:40:31;17.50;99.90
10089;DHT22;51898;49.864;8.550;2022-09-03T07:43:42;17.40;99.90
10089;DHT22;51898;49.864;8.550;2022-09-03T07:46:49;17.20;99.90
10089;DHT22;51898;49.864;8.550;2022-09-03T07:49:51;17.30;99.90
10089;DHT22;51898;49.864;8.550;2022-09-03T07:52:56;17.00;99.90
10089;DHT22;51898;49.864;8.550;2022-09-03T07:56:06;16.90;99.90
10089;DHT22;51898;49.864;8.550;2022-09-03T07:59:08;16.90;99.90
10089;DHT22;51898;49.864;8.550;2022-09-03T08:02:10;16.80;99.90
10089;DHT22;51898;49.864;8.550;2022-09-03T08:05:12;16.90;99.90
10089;DHT22;51898;49.864;8.550;2022-09-03T08:08:14;16.80;99.90
10089;DHT22;51898;49.864;8.550;2022-09-03T08:11:18;16.90;99.90
10089;DHT22;51898;49.864;8.550;2022-09-03T08:14:21;17.00;99.90
10089;DHT22;51898;49.864;8.550;2022-09-03T08:17:22;16.90;99.90
10089;DHT22;51898;49.864;8.550;2022-09-03T08:20:25;17.00;99.90
10089;DHT22;51898;49.864;8.550;2022-09-03T08:23:26;17.00;99.90
10089;DHT22;51898;49.864;8.550;2022-09-03T08:26:33;17.20;99.90
10089;DHT22;51898;49.864;8.550;2022-09-03T08:29:35;17.10;99.90
10089;DHT22;51898;49.864;8.550;2022-09-03T08:32:37;17.20;99.90
10089;DHT22;51898;49.864;8.550;2022-09-03T08:35:39;17.30;99.90
10089;DHT22;51898;49.864;8.550;2022-09-03T08:38:42;17.40;99.90
10089;DHT22;51898;49.864;8.550;2022-09-03T08:41:57;17.50;99.90
10089;DHT22;51898;49.864;8.550;2022-09-03T08:45:06;17.60;99.90
10089;DHT22;51898;49.864;8.550;2022-09-03T08:48:14;17.80;99.90
10089;DHT22;51898;49.864;8.550;2022-09-03T08:51:23;18.00;99.90
10089;DHT22;51898;49.864;8.550;2022-09-03T08:54:30;18.20;99.90
10089;DHT22;51898;49.864;8.550;2022-09-03T08:58:28;18.50;99.90
10089;DHT22;51898;49.864;8.550;2022-09-03T09:01:15;18.90;99.90
10089;DHT22;51898;49.864;8.550;2022-09-03T09:05:28;19.40;99.90
10089;DHT22;51898;49.864;8.550;2022-09-03T09:08:28;19.80;99.90
10089;DHT22;51898;49.864;8.550;2022-09-03T09:25:30;19.70;99.90
10089;DHT22;51898;49.864;8.550;2022-09-03T09:28:35;19.70;99.90
10089;DHT22;51898;49.864;8.550;2022-09-03T09:31:39;19.90;99.90
10089;DHT22;51898;49.864;8.550;2022-09-03T09:34:45;20.10;99.90
10089;DHT22;51898;49.864;8.550;2022-09-03T09:37:55;20.50;99.90
10089;DHT22;51898;49.864;8.550;2022-09-03T09:41:07;20.70;99.90
10089;DHT22;51898;49.864;8.550;2022-09-03T09:44:19;20.80;99.90
10089;DHT22;51898;49.864;8.550;2022-09-03T09:47:26;20.50;99.90
10089;DHT22;51898;49.864;8.550;2022-09-03T09:50:29;20.60;99.90
10089;DHT22;51898;49.864;8.550;2022-09-03T09:53:30;20.60;99.90
10089;DHT22;51898;49.864;8.550;2022-09-03T09:56:32;20.60;99.90
10089;DHT22;51898;49.864;8.550;2022-09-03T09:59:34;20.50;99.90
10089;DHT22;51898;49.864;8.550;2022-09-03T10:02:39;21.00;99.90
10089;DHT22;51898;49.864;8.550;2022-09-03T10:06:00;21.40;99.90
10089;DHT22;51898;49.864;8.550;2022-09-03T10:09:10;21.60;99.90
10089;DHT22;51898;49.864;8.550;2022-09-03T10:12:25;21.80;99.90
10089;DHT22;51898;49.864;8.550;2022-09-03T10:18:49;22.00;99.90
10089;DHT22;51898;49.864;8.550;2022-09-03T10:22:04;22.10;99.90
10089;DHT22;51898;49.864;8.550;2022-09-03T10:25:09;22.30;99.90
10089;DHT22;51898;49.864;8.550;2022-09-03T10:28:10;22.40;99.90
10089;DHT22;51898;49.864;8.550;2022-09-03T10:38:06;22.70;99.90
10089;DHT22;51898;49.864;8.550;2022-09-03T10:44:43;23.10;99.90
10089;DHT22;51898;49.864;8.550;2022-09-03T10:51:14;22.70;99.90
10089;DHT22;51898;49.864;8.550;2022-09-03T10:54:40;22.60;99.90
10089;DHT22;51898;49.864;8.550;2022-09-03T11:01:05;22.70;99.90
10089;DHT22;51898;49.864;8.550;2022-09-03T11:04:27;22.60;99.90
10089;DHT22;51898;49.864;8.550;2022-09-03T11:07:44;22.60;99.90
10089;DHT22;51898;49.864;8.550;2022-09-03T11:21:39;23.30;99.90
10089;DHT22;51898;49.864;8.550;2022-09-03T11:24:51;23.20;99.90
10089;DHT22;51898;49.864;8.550;2022-09-03T11:28:08;23.20;99.90
10089;DHT22;51898;49.864;8.550;2022-09-03T11:34:31;22.90;99.90
10089;DHT22;51898;49.864;8.550;2022-09-03T11:37:48;22.60;99.90
10089;DHT22;51898;49.864;8.550;2022-09-03T11:44:15;22.70;99.90
10089;DHT22;51898;49.864;8.550;2022-09-03T11:47:24;22.90;99.90
10089;DHT22;51898;49.864;8.550;2022-09-03T11:50:37;23.00;99.90
10089;DHT22;51898;49.864;8.550;2022-09-03T11:53:39;23.20;99.90
10089;DHT22;51898;49.864;8.550;2022-09-03T11:56:41;23.30;99.90
10089;DHT22;51898;49.864;8.550;2022-09-03T11:59:43;23.30;99.90
10089;DHT22;51898;49.864;8.550;2022-09-03T12:02:48;23.30;99.90
10089;DHT22;51898;49.864;8.550;2022-09-03T12:13:24;23.50;99.90
10089;DHT22;51898;49.864;8.550;2022-09-03T12:16:48;23.70;99.90
10089;DHT22;51898;49.864;8.550;2022-09-03T12:19:54;24.10;99.90
10089;DHT22;51898;49.864;8.550;2022-09-03T12:22:56;24.50;99.90
10089;DHT22;51898;49.864;8.550;2022-09-03T12:26:02;24.50;99.90
10089;DHT22;51898;49.864;8.550;2022-09-03T12:29:06;24.50;99.90
10089;DHT22;51898;49.864;8.550;2022-09-03T12:32:20;24.50;99.90
10089;DHT22;51898;49.864;8.550;2022-09-03T12:35:24;24.40;99.90
10089;DHT22;51898;49.864;8.550;2022-09-03T12:38:46;24.40;99.90
10089;DHT22;51898;49.864;8.550;2022-09-03T12:42:12;24.40;99.90
10089;DHT22;51898;49.864;8.550;2022-09-03T12:45:24;24.60;99.90
10089;DHT22;51898;49.864;8.550;2022-09-03T12:48:26;24.50;99.90
10089;DHT22;51898;49.864;8.550;2022-09-03T12:51:38;24.30;99.90
10089;DHT22;51898;49.864;8.550;2022-09-03T12:55:01;24.60;99.90
10089;DHT22;51898;49.864;8.550;2022-09-03T12:58:18;24.60;99.90
10089;DHT22;51898;49.864;8.550;2022-09-03T13:01:29;25.10;99.90
10089;DHT22;51898;49.864;8.550;2022-09-03T13:04:35;25.40;99.90
10089;DHT22;51898;49.864;8.550;2022-09-03T13:07:37;25.70;99.90
10089;DHT22;51898;49.864;8.550;2022-09-03T13:10:54;25.90;99.90
10089;DHT22;51898;49.864;8.550;2022-09-03T13:14:04;26.10;99.90
10089;DHT22;51898;49.864;8.550;2022-09-03T13:17:29;25.70;99.90
10089;DHT22;51898;49.864;8.550;2022-09-03T13:24:27;25.60;99.90
10089;DHT22;51898;49.864;8.550;2022-09-03T13:27:44;25.60;99.90
10089;DHT22;51898;49.864;8.550;2022-09-03T13:31:01;26.00;99.90
10089;DHT22;51898;49.864;8.550;2022-09-03T13:34:14;26.20;99.90
10089;DHT22;51898;49.864;8.550;2022-09-03T13:37:42;26.50;99.90
10089;DHT22;51898;49.864;8.550;2022-09-03T13:40:57;26.70;99.90
10089;DHT22;51898;49.864;8.550;2022-09-03T13:44:08;26.80;99.90
10089;DHT22;51898;49.864;8.550;2022-09-03T13:50:41;26.70;99.90
10089;DHT22;51898;49.864;8.550;2022-09-03T13:57:43;26.70;99.90
10089;DHT22;51898;49.864;8.550;2022-09-03T14:00:53;26.60;99.90
10089;DHT22;51898;49.864;8.550;2022-09-03T14:04:13;26.40;99.90
10089;DHT22;51898;49.864;8.550;2022-09-03T14:11:13;26.20;99.90
10089;DHT22;51898;49.864;8.550;2022-09-03T14:14:43;26.10;99.90
10089;DHT22;51898;49.864;8.550;2022-09-03T14:18:08;26.40;99.90
10089;DHT22;51898;49.864;8.550;2022-09-03T14:21:28;26.50;99.90
10089;DHT22;51898;49.864;8.550;2022-09-03T14:24:56;26.20;99.90
10089;DHT22;51898;49.864;8.550;2022-09-03T14:38:10;26.40;99.90
10089;DHT22;51898;49.864;8.550;2022-09-03T14:41:42;26.30;99.90
10089;DHT22;51898;49.864;8.550;2022-09-03T14:45:08;26.40;99.90
10089;DHT22;51898;49.864;8.550;2022-09-03T14:55:21;26.70;99.90
10089;DHT22;51898;49.864;8.550;2022-09-03T14:58:47;26.60;99.90
10089;DHT22;51898;49.864;8.550;2022-09-03T15:12:32;25.70;99.90
10089;DHT22;51898;49.864;8.550;2022-09-03T15:35:38;24.30;99.90
10089;DHT22;51898;49.864;8.550;2022-09-03T15:39:00;24.20;99.90
10089;DHT22;51898;49.864;8.550;2022-09-03T15:42:08;24.10;99.90
10089;DHT22;51898;49.864;8.550;2022-09-03T15:45:37;24.00;99.90
10089;DHT22;51898;49.864;8.550;2022-09-03T15:48:47;24.00;99.90
10089;DHT22;51898;49.864;8.550;2022-09-03T15:55:34;24.10;99.90
10089;DHT22;51898;49.864;8.550;2022-09-03T15:58:56;24.10;99.90
10089;DHT22;51898;49.864;8.550;2022-09-03T16:05:39;24.00;99.90
10089;DHT22;51898;49.864;8.550;2022-09-03T16:09:01;23.90;99.90
10089;DHT22;51898;49.864;8.550;2022-09-03T16:12:13;23.80;99.90
10089;DHT22;51898;49.864;8.550;2022-09-03T16:15:26;23.70;99.90
10089;DHT22;51898;49.864;8.550;2022-09-03T16:18:40;23.70;99.90
10089;DHT22;51898;49.864;8.550;2022-09-03T16:21:59;23.60;99.90
10089;DHT22;51898;49.864;8.550;2022-09-03T16:25:07;23.40;99.90
10089;DHT22;51898;49.864;8.550;2022-09-03T16:28:17;23.30;99.90
10089;DHT22;51898;49.864;8.550;2022-09-03T16:41:15;22.70;99.90
10089;DHT22;51898;49.864;8.550;2022-09-03T16:51:13;21.10;99.90
10089;DHT22;51898;49.864;8.550;2022-09-03T17:01:03;20.00;99.90
10089;DHT22;51898;49.864;8.550;2022-09-03T17:04:28;19.80;99.90
10089;DHT22;51898;49.864;8.550;2022-09-03T17:07:53;19.70;99.90
10089;DHT22;51898;49.864;8.550;2022-09-03T17:14:53;19.50;99.90
10089;DHT22;51898;49.864;8.550;2022-09-03T17:18:08;19.40;99.90
10089;DHT22;51898;49.864;8.550;2022-09-03T17:21:23;19.30;99.90
10089;DHT22;51898;49.864;8.550;2022-09-03T17:24:42;19.20;99.90
10089;DHT22;51898;49.864;8.550;2022-09-03T17:31:16;19.50;99.90
10089;DHT22;51898;49.864;8.550;2022-09-03T17:34:42;20.00;99.90
10089;DHT22;51898;49.864;8.550;2022-09-03T17:41:54;20.20;99.90
10089;DHT22;51898;49.864;8.550;2022-09-03T17:51:46;19.20;99.90
10089;DHT22;51898;49.864;8.550;2022-09-03T17:54:53;19.30;99.90
10089;DHT22;51898;49.864;8.550;2022-09-03T17:58:18;19.20;99.90
10089;DHT22;51898;49.864;8.550;2022-09-03T18:01:25;19.10;99.90
10089;DHT22;51898;49.864;8.550;2022-09-03T18:10:41;18.90;99.90
10089;DHT22;51898;49.864;8.550;2022-09-03T18:17:17;18.80;99.90
10089;DHT22;51898;49.864;8.550;2022-09-03T18:20:21;18.80;99.90
10089;DHT22;51898;49.864;8.550;2022-09-03T18:30:34;18.60;99.90
10089;DHT22;51898;49.864;8.550;2022-09-03T18:33:54;18.50;99.90
10089;DHT22;51898;49.864;8.550;2022-09-03T18:37:21;18.50;99.90
10089;DHT22;51898;49.864;8.550;2022-09-03T18:40:55;18.40;99.90
10089;DHT22;51898;49.864;8.550;2022-09-03T18:44:39;18.30;99.90
10089;DHT22;51898;49.864;8.550;2022-09-03T18:52:07;18.20;99.90
10089;DHT22;51898;49.864;8.550;2022-09-03T18:55:52;18.10;99.90
10089;DHT22;51898;49.864;8.550;2022-09-03T18:59:27;18.10;99.90
10089;DHT22;51898;49.864;8.550;2022-09-03T19:02:54;18.00;99.90
10089;DHT22;51898;49.864;8.550;2022-09-03T19:06:36;17.90;99.90
10089;DHT22;51898;49.864;8.550;2022-09-03T19:10:06;17.90;99.90
10089;DHT22;51898;49.864;8.550;2022-09-03T19:13:31;17.90;99.90
10089;DHT22;51898;49.864;8.550;2022-09-03T19:17:07;17.90;99.90
10089;DHT22;51898;49.864;8.550;2022-09-03T19:20:31;17.90;99.90
10089;DHT22;51898;49.864;8.550;2022-09-03T19:23:58;18.00;99.90
10089;DHT22;51898;49.864;8.550;2022-09-03T19:27:34;18.10;99.90
10089;DHT22;51898;49.864;8.550;2022-09-03T19:34:49;18.10;99.90
10089;DHT22;51898;49.864;8.550;2022-09-03T19:38:56;18.20;99.90
10089;DHT22;51898;49.864;8.550;2022-09-03T19:43:01;18.00;99.90
10089;DHT22;51898;49.864;8.550;2022-09-03T19:50:21;18.00;99.90
10089;DHT22;51898;49.864;8.550;2022-09-03T19:53:43;18.00;99.90
10089;DHT22;51898;49.864;8.550;2022-09-03T19:57:03;17.90;99.90
10089;DHT22;51898;49.864;8.550;2022-09-03T20:00:24;17.90;99.90
10089;DHT22;51898;49.864;8.550;2022-09-03T20:03:46;17.80;99.90
10089;DHT22;51898;49.864;8.550;2022-09-03T20:07:08;17.70;99.90
10089;DHT22;51898;49.864;8.550;2022-09-03T20:10:29;17.60;99.90
10089;DHT22;51898;49.864;8.550;2022-09-03T20:13:32;17.60;99.90
10089;DHT22;51898;49.864;8.550;2022-09-03T20:17:13;17.50;99.90
10089;DHT22;51898;49.864;8.550;2022-09-03T20:20:23;17.40;99.90
10089;DHT22;51898;49.864;8.550;2022-09-03T20:23:46;17.10;99.90
10089;DHT22;51898;49.864;8.550;2022-09-03T20:27:03;17.00;99.90
10089;DHT22;51898;49.864;8.550;2022-09-03T20:31:16;16.90;99.90
10089;DHT22;51898;49.864;8.550;2022-09-03T20:34:06;16.80;99.90
10089;DHT22;51898;49.864;8.550;2022-09-03T20:41:34;16.60;99.90
10089;DHT22;51898;49.864;8.550;2022-09-03T20:44:57;16.50;99.90
10089;DHT22;51898;49.864;8.550;2022-09-03T20:48:14;16.50;99.90
10089;DHT22;51898;49.864;8.550;2022-09-03T20:51:26;16.40;99.90
10089;DHT22;51898;49.864;8.550;2022-09-03T20:54:47;16.30;99.90
10089;DHT22;51898;49.864;8.550;2022-09-03T21:01:36;16.30;99.90
10089;DHT22;51898;49.864;8.550;2022-09-03T21:05:02;16.40;99.90
10089;DHT22;51898;49.864;8.550;2022-09-03T21:08:18;16.40;99.90
10089;DHT22;51898;49.864;8.550;2022-09-03T21:11:35;16.40;99.90
10089;DHT22;51898;49.864;8.550;2022-09-03T21:14:51;16.50;99.90
10089;DHT22;51898;49.864;8.550;2022-09-03T21:21:42;16.40;99.90
10089;DHT22;51898;49.864;8.550;2022-09-03T21:25:00;16.40;99.90
10089;DHT22;51898;49.864;8.550;2022-09-03T21:34:42;16.30;99.90
10089;DHT22;51898;49.864;8.550;2022-09-03T21:37:53;16.20;99.90
10089;DHT22;51898;49.864;8.550;2022-09-03T21:44:31;16.20;99.90
10089;DHT22;51898;49.864;8.550;2022-09-03T21:47:41;16.20;99.90
10089;DHT22;51898;49.864;8.550;2022-09-03T21:50:56;16.20;99.90
10089;DHT22;51898;49.864;8.550;2022-09-03T21:54:07;16.20;99.90
10089;DHT22;51898;49.864;8.550;2022-09-03T21:57:33;16.20;99.90
10089;DHT22;51898;49.864;8.550;2022-09-03T22:00:37;16.20;99.90
10089;DHT22;51898;49.864;8.550;2022-09-03T22:03:40;16.20;99.90
10089;DHT22;51898;49.864;8.550;2022-09-03T22:07:09;16.20;99.90
10089;DHT22;51898;49.864;8.550;2022-09-03T22:10:25;16.30;99.90
10089;DHT22;51898;49.864;8.550;2022-09-03T22:13:56;16.20;99.90
10089;DHT22;51898;49.864;8.550;2022-09-03T22:17:21;16.20;99.90
10089;DHT22;51898;49.864;8.550;2022-09-03T22:20:25;16.10;99.90
10089;DHT22;51898;49.864;8.550;2022-09-03T22:23:36;16.10;99.90
10089;DHT22;51898;49.864;8.550;2022-09-03T22:30:17;16.10;99.90
10089;DHT22;51898;49.864;8.550;2022-09-03T22:33:29;16.20;99.90
10089;DHT22;51898;49.864;8.550;2022-09-03T22:36:39;16.10;99.90
10089;DHT22;51898;49.864;8.550;2022-09-03T22:39:45;16.00;99.90
10089;DHT22;51898;49.864;8.550;2022-09-03T22:46:03;15.90;99.90
10089;DHT22;51898;49.864;8.550;2022-09-03T22:49:23;15.80;99.90
10089;DHT22;51898;49.864;8.550;2022-09-03T22:52:43;15.80;99.90
10089;DHT22;51898;49.864;8.550;2022-09-03T22:55:56;15.70;99.90
10089;DHT22;51898;49.864;8.550;2022-09-03T22:59:32;15.70;99.90
10089;DHT22;51898;49.864;8.550;2022-09-03T23:02:36;15.70;99.90
10089;DHT22;51898;49.864;8.550;2022-09-03T23:05:54;15.70;99.90
10089;DHT22;51898;49.864;8.550;2022-09-03T23:09:14;15.70;99.90
10089;DHT22;51898;49.864;8.550;2022-09-03T23:12:26;15.70;99.90
10089;DHT22;51898;49.864;8.550;2022-09-03T23:15:32;15.70;99.90
10089;DHT22;51898;49.864;8.550;2022-09-03T23:18:39;15.80;99.90
10089;DHT22;51898;49.864;8.550;2022-09-03T23:21:58;15.60;99.90
10089;DHT22;51898;49.864;8.550;2022-09-03T23:25:10;15.30;99.90
10089;DHT22;51898;49.864;8.550;2022-09-03T23:28:32;15.20;99.90
10089;DHT22;51898;49.864;8.550;2022-09-03T23:31:37;15.20;99.90
10089;DHT22;51898;49.864;8.550;2022-09-03T23:34:39;15.20;99.90
10089;DHT22;51898;49.864;8.550;2022-09-03T23:37:46;15.20;99.90
10089;DHT22;51898;49.864;8.550;2022-09-03T23:40:53;15.20;99.90
10089;DHT22;51898;49.864;8.550;2022-09-03T23:44:05;15.20;99.90
10089;DHT22;51898;49.864;8.550;2022-09-03T23:47:42;15.20;99.90
10089;DHT22;51898;49.864;8.550;2022-09-03T23:54:37;15.10;99.90
10089;DHT22;51898;49.864;8.550;2022-09-03T23:57:50;15.10;99.90
